createdAt,value
2017-11-21T00:00:04.012Z,7.09
2017-11-21T00:02:30.271Z,7.03
2017-11-21T00:04:56.700Z,7.27
2017-11-21T00:07:23.114Z,7.22
2017-11-21T00:09:49.571Z,7.16
2017-11-21T00:12:15.953Z,7.09
2017-11-21T00:14:42.329Z,7.32
2017-11-21T00:17:08.682Z,7.32
2017-11-21T00:19:35.077Z,7.36
2017-11-21T00:22:01.534Z,7.37
2017-11-21T00:24:27.947Z,7.18
2017-11-21T00:26:54.295Z,7.32
2017-11-21T00:29:20.738Z,7.20
2017-11-21T00:31:47.138Z,7.30
2017-11-21T00:34:13.576Z,6.73
2017-11-21T00:36:40.132Z,6.85
2017-11-21T00:39:06.498Z,6.70
2017-11-21T00:41:32.862Z,6.87
2017-11-21T00:43:59.302Z,6.98
2017-11-21T00:46:25.667Z,7.21
2017-11-21T00:48:52.377Z,7.36
2017-11-21T00:51:18.955Z,7.24
2017-11-21T00:53:45.312Z,7.05
2017-11-21T00:56:11.807Z,7.27
2017-11-21T00:58:38.265Z,7.37
2017-11-21T01:01:04.678Z,7.31
2017-11-21T01:03:31.162Z,7.22
2017-11-21T01:05:57.714Z,7.31
2017-11-21T01:08:24.130Z,7.26
2017-11-21T01:10:50.502Z,7.29
2017-11-21T01:13:16.957Z,7.23
2017-11-21T01:15:43.368Z,7.15
2017-11-21T01:18:09.750Z,7.20
2017-11-21T01:20:36.212Z,7.25
2017-11-21T01:23:02.669Z,7.30
2017-11-21T01:25:29.040Z,7.32
2017-11-21T01:27:55.414Z,7.33
2017-11-21T01:30:22.001Z,7.32
2017-11-21T01:32:48.404Z,6.96
2017-11-21T01:37:47.775Z,6.91
2017-11-21T01:40:14.234Z,6.85
2017-11-21T01:42:40.756Z,6.81
2017-11-21T01:45:07.327Z,6.88
2017-11-21T01:47:33.790Z,6.92
2017-11-21T01:50:00.261Z,7.02
2017-11-21T01:52:26.637Z,7.01
2017-11-21T01:54:53.033Z,6.72
2017-11-21T01:57:19.421Z,6.67
2017-11-21T01:59:45.798Z,6.68
2017-11-21T02:02:12.181Z,6.71
2017-11-21T02:04:39.201Z,6.73
2017-11-21T02:07:05.635Z,6.71
2017-11-21T02:09:31.998Z,6.63
2017-11-21T02:11:58.515Z,6.63
2017-11-21T02:14:24.989Z,6.73
2017-11-21T02:16:51.386Z,6.73
2017-11-21T02:19:17.941Z,6.85
2017-11-21T02:21:44.385Z,6.92
2017-11-21T02:24:11.178Z,6.86
2017-11-21T02:26:37.648Z,6.92
2017-11-21T02:29:04.325Z,6.80
2017-11-21T02:31:30.714Z,6.98
2017-11-21T02:33:57.283Z,7.12
2017-11-21T02:36:23.769Z,7.28
2017-11-21T02:38:50.289Z,7.07
2017-11-21T02:41:16.810Z,7.25
2017-11-21T02:43:43.265Z,7.10
2017-11-21T02:46:09.796Z,7.13
2017-11-21T02:48:36.370Z,6.93
2017-11-21T02:51:02.854Z,6.96
2017-11-21T02:53:29.281Z,6.99
2017-11-21T02:55:55.769Z,6.95
2017-11-21T02:58:22.217Z,7.00
2017-11-21T03:00:48.709Z,6.80
2017-11-21T03:03:15.166Z,6.86
2017-11-21T03:05:41.532Z,6.58
2017-11-21T03:08:07.882Z,6.82
2017-11-21T03:10:34.330Z,6.84
2017-11-21T03:13:00.726Z,6.77
2017-11-21T03:15:27.145Z,6.85
2017-11-21T03:17:53.650Z,6.86
2017-11-21T03:20:32.403Z,6.71
2017-11-21T03:23:11.021Z,6.82
2017-11-21T03:25:49.545Z,6.74
2017-11-21T03:28:16.065Z,6.80
2017-11-21T03:30:42.610Z,6.86
2017-11-21T03:33:09.020Z,6.63
2017-11-21T03:35:35.490Z,6.63
2017-11-21T03:38:01.963Z,6.57
2017-11-21T03:40:28.425Z,6.64
2017-11-21T03:42:55.047Z,6.76
2017-11-21T03:45:21.585Z,6.56
2017-11-21T03:47:47.982Z,6.43
2017-11-21T03:50:14.406Z,6.49
2017-11-21T03:52:40.921Z,6.40
2017-11-21T03:55:07.503Z,6.41
2017-11-21T03:57:33.940Z,6.64
2017-11-21T04:00:00.430Z,6.56
2017-11-21T04:02:26.984Z,6.65
2017-11-21T04:04:53.414Z,6.43
2017-11-21T04:07:19.828Z,6.39
2017-11-21T04:09:46.186Z,6.46
2017-11-21T04:12:12.720Z,6.40
2017-11-21T04:14:39.294Z,6.44
2017-11-21T04:17:05.712Z,6.29
2017-11-21T04:19:32.212Z,6.43
2017-11-21T04:21:58.585Z,6.27
2017-11-21T04:24:24.965Z,6.23
2017-11-21T04:26:51.420Z,6.24
2017-11-21T04:29:17.829Z,6.22
2017-11-21T04:31:44.418Z,6.33
2017-11-21T04:34:10.842Z,6.41
2017-11-21T04:36:37.280Z,6.58
2017-11-21T04:39:03.877Z,6.55
2017-11-21T04:41:30.365Z,6.69
2017-11-21T04:43:56.885Z,6.53
2017-11-21T04:46:23.384Z,6.46
2017-11-21T04:48:49.878Z,6.44
2017-11-21T04:51:16.371Z,6.47
2017-11-21T04:53:42.822Z,6.24
2017-11-21T04:56:09.277Z,6.43
2017-11-21T04:58:35.718Z,6.26
2017-11-21T05:01:02.137Z,6.27
2017-11-21T05:03:28.608Z,6.40
2017-11-21T05:05:54.986Z,6.43
2017-11-21T05:08:21.368Z,6.40
2017-11-21T05:10:47.808Z,6.48
2017-11-21T05:13:14.302Z,6.58
2017-11-21T05:15:40.825Z,6.57
2017-11-21T05:18:07.357Z,6.68
2017-11-21T05:20:34.013Z,6.67
2017-11-21T05:23:00.671Z,6.60
2017-11-21T05:25:27.222Z,6.58
2017-11-21T05:27:53.674Z,6.50
2017-11-21T05:30:20.097Z,6.53
2017-11-21T05:32:58.983Z,6.61
2017-11-21T05:35:25.344Z,6.70
2017-11-21T05:37:51.715Z,6.69
2017-11-21T05:40:18.214Z,6.71
2017-11-21T05:42:44.590Z,6.43
2017-11-21T05:45:11.127Z,6.46
2017-11-21T05:47:37.644Z,6.31
2017-11-21T05:50:04.066Z,6.36
2017-11-21T05:52:30.461Z,6.55
2017-11-21T05:54:56.898Z,6.67
2017-11-21T05:57:23.323Z,6.26
2017-11-21T05:59:49.840Z,6.33
2017-11-21T06:02:16.503Z,6.39
2017-11-21T06:04:42.980Z,6.52
2017-11-21T06:07:09.437Z,6.27
2017-11-21T06:09:36.073Z,6.33
2017-11-21T06:12:02.458Z,6.50
2017-11-21T06:14:28.922Z,6.37
2017-11-21T06:16:55.357Z,6.44
2017-11-21T06:19:21.942Z,6.62
2017-11-21T06:21:48.446Z,6.63
2017-11-21T06:24:14.878Z,6.81
2017-11-21T06:26:41.312Z,6.92
2017-11-21T06:29:07.681Z,6.92
2017-11-21T06:31:34.263Z,7.05
2017-11-21T06:34:00.693Z,7.09
2017-11-21T06:36:27.168Z,7.06
2017-11-21T06:38:53.685Z,7.11
2017-11-21T06:41:20.156Z,7.21
2017-11-21T06:43:46.572Z,7.21
2017-11-21T06:46:13.037Z,7.25
2017-11-21T06:48:39.634Z,7.36
2017-11-21T06:51:06.113Z,7.43
2017-11-21T06:53:32.533Z,7.37
2017-11-21T06:55:59.021Z,7.37
2017-11-21T06:58:25.494Z,7.39
2017-11-21T07:00:51.905Z,7.47
2017-11-21T07:03:18.342Z,7.35
2017-11-21T07:05:44.733Z,7.43
2017-11-21T07:08:11.186Z,7.46
2017-11-21T07:10:37.673Z,7.51
2017-11-21T07:13:04.073Z,7.55
2017-11-21T07:15:30.494Z,7.66
2017-11-21T07:17:56.914Z,7.78
2017-11-21T07:20:23.305Z,7.68
2017-11-21T07:22:49.714Z,7.74
2017-11-21T07:25:16.170Z,7.67
2017-11-21T07:27:42.585Z,7.78
2017-11-21T07:30:09.091Z,7.77
2017-11-21T07:32:35.507Z,7.90
2017-11-21T07:35:02.157Z,7.89
2017-11-21T07:37:28.590Z,7.90
2017-11-21T07:39:54.942Z,7.87
2017-11-21T07:42:21.510Z,7.95
2017-11-21T07:44:47.991Z,8.05
2017-11-21T07:47:14.400Z,8.16
2017-11-21T07:49:40.778Z,8.25
2017-11-21T07:52:07.393Z,8.21
2017-11-21T07:54:33.757Z,8.28
2017-11-21T07:57:00.289Z,8.34
2017-11-21T07:59:26.737Z,8.45
2017-11-21T08:01:53.114Z,8.44
2017-11-21T08:04:19.493Z,8.33
2017-11-21T08:06:45.992Z,8.52
2017-11-21T08:09:12.424Z,8.50
2017-11-21T08:11:38.909Z,8.51
2017-11-21T08:14:05.383Z,8.48
2017-11-21T08:16:31.862Z,8.50
2017-11-21T08:18:58.278Z,8.47
2017-11-21T08:21:24.769Z,8.55
2017-11-21T08:23:51.292Z,8.61
2017-11-21T08:26:17.869Z,8.70
2017-11-21T08:28:44.410Z,8.78
2017-11-21T08:31:10.846Z,8.83
2017-11-21T08:33:37.473Z,8.74
2017-11-21T08:36:03.974Z,8.82
2017-11-21T08:38:30.493Z,8.98
2017-11-21T08:40:56.930Z,9.12
2017-11-21T08:43:23.350Z,8.85
2017-11-21T08:45:49.746Z,8.84
2017-11-21T08:48:16.257Z,8.99
2017-11-21T08:50:42.717Z,9.11
2017-11-21T08:53:09.122Z,9.18
2017-11-21T08:55:35.482Z,9.16
2017-11-21T08:58:01.882Z,9.07
2017-11-21T09:00:28.340Z,9.17
2017-11-21T09:02:54.798Z,9.21
2017-11-21T09:05:21.260Z,9.41
2017-11-21T09:07:47.948Z,9.58
2017-11-21T09:10:14.357Z,9.65
2017-11-21T09:12:40.793Z,9.86
2017-11-21T09:24:13.498Z,9.61
2017-11-21T09:26:39.945Z,9.76
2017-11-21T09:29:06.320Z,9.70
2017-11-21T09:31:32.728Z,9.71
2017-11-21T09:33:59.157Z,9.71
2017-11-21T09:36:25.729Z,9.88
2017-11-21T09:38:52.257Z,9.98
2017-11-21T09:41:18.630Z,10.08
2017-11-21T09:43:45.072Z,10.10
2017-11-21T09:46:11.551Z,10.00
2017-11-21T09:48:38.013Z,10.10
2017-11-21T09:51:04.428Z,10.19
2017-11-21T09:53:30.814Z,10.33
2017-11-21T09:55:57.508Z,10.34
2017-11-21T09:58:23.906Z,10.14
2017-11-21T10:00:50.335Z,10.25
2017-11-21T10:03:16.802Z,10.09
2017-11-21T10:05:43.233Z,10.18
2017-11-21T10:08:09.709Z,9.99
2017-11-21T10:10:36.209Z,10.03
2017-11-21T10:13:02.645Z,10.05
2017-11-21T10:15:29.193Z,10.22
2017-11-21T10:18:01.611Z,10.42
2017-11-21T10:20:28.042Z,10.46
2017-11-21T10:22:54.450Z,10.30
2017-11-21T10:25:20.970Z,10.46
2017-11-21T10:27:47.431Z,10.48
2017-11-21T10:30:13.882Z,10.52
2017-11-21T10:32:40.362Z,10.57
2017-11-21T10:35:06.894Z,10.59
2017-11-21T10:37:33.618Z,10.40
2017-11-21T10:40:00.034Z,10.44
2017-11-21T10:42:26.549Z,10.65
2017-11-21T10:44:52.894Z,10.72
2017-11-21T10:47:19.301Z,10.71
2017-11-21T10:49:45.809Z,10.76
2017-11-21T10:52:12.241Z,10.78
2017-11-21T10:54:38.606Z,10.67
2017-11-21T10:57:18.298Z,10.58
2017-11-21T10:59:44.762Z,10.77
2017-11-21T11:02:11.278Z,10.78
2017-11-21T11:04:37.744Z,10.88
2017-11-21T11:07:04.551Z,10.79
2017-11-21T11:09:31.175Z,10.86
2017-11-21T11:11:57.694Z,10.60
2017-11-21T11:14:24.246Z,10.60
2017-11-21T11:16:50.917Z,10.67
2017-11-21T11:19:17.437Z,10.72
2017-11-21T11:21:43.958Z,10.73
2017-11-21T11:24:10.420Z,10.86
2017-11-21T11:26:37.102Z,10.84
2017-11-21T11:29:03.663Z,10.78
2017-11-21T11:31:30.303Z,10.93
2017-11-21T11:33:56.942Z,10.98
2017-11-21T11:36:23.534Z,11.05
2017-11-21T11:38:50.217Z,11.04
2017-11-21T11:41:17.094Z,10.92
2017-11-21T11:43:43.668Z,10.78
2017-11-21T11:46:10.159Z,10.88
2017-11-21T11:48:36.681Z,10.68
2017-11-21T11:51:03.354Z,10.66
2017-11-21T11:53:29.814Z,10.77
2017-11-21T11:55:56.350Z,10.89
2017-11-21T11:58:22.988Z,11.00
2017-11-21T12:00:49.425Z,11.03
2017-11-21T12:03:16.014Z,10.96
2017-11-21T12:05:42.494Z,11.05
2017-11-21T12:08:09.009Z,10.90
2017-11-21T12:10:35.567Z,10.80
2017-11-21T12:13:02.077Z,10.84
2017-11-21T12:15:28.659Z,10.67
2017-11-21T12:17:55.314Z,10.78
2017-11-21T12:20:21.865Z,10.75
2017-11-21T12:22:48.342Z,10.66
2017-11-21T12:25:14.874Z,10.84
2017-11-21T12:27:41.389Z,10.82
2017-11-21T12:30:07.956Z,10.76
2017-11-21T12:32:34.468Z,10.85
2017-11-21T12:35:00.929Z,10.92
2017-11-21T12:37:27.378Z,10.93
2017-11-21T12:39:53.896Z,10.76
2017-11-21T12:42:20.416Z,10.83
2017-11-21T12:44:46.957Z,10.80
2017-11-21T12:47:13.500Z,11.00
2017-11-21T12:49:40.034Z,10.94
2017-11-21T12:52:06.549Z,10.85
2017-11-21T12:54:33.153Z,10.92
2017-11-21T12:56:59.645Z,10.97
2017-11-21T12:59:26.300Z,10.93
2017-11-21T13:01:52.842Z,11.02
2017-11-21T13:04:19.365Z,11.07
2017-11-21T13:06:45.825Z,11.09
2017-11-21T13:09:12.394Z,11.12
2017-11-21T13:11:39.031Z,10.97
2017-11-21T13:14:05.612Z,10.95
2017-11-21T13:16:32.162Z,11.05
2017-11-21T13:18:58.893Z,10.84
2017-11-21T13:21:25.434Z,10.74
2017-11-21T13:23:51.989Z,10.74
2017-11-21T13:26:18.532Z,10.80
2017-11-21T13:28:45.010Z,10.92
2017-11-21T13:31:11.593Z,10.89
2017-11-21T13:33:38.082Z,10.98
2017-11-21T13:36:04.590Z,10.86
2017-11-21T13:38:31.101Z,10.83
2017-11-21T13:40:57.594Z,10.85
2017-11-21T13:43:24.073Z,11.01
2017-11-21T13:45:50.578Z,10.97
2017-11-21T13:48:17.113Z,11.10
2017-11-21T13:50:43.582Z,11.16
2017-11-21T13:53:10.246Z,10.95
2017-11-21T13:55:36.860Z,10.93
2017-11-21T13:58:03.462Z,11.04
2017-11-21T14:00:29.982Z,11.16
2017-11-21T14:02:56.533Z,11.22
2017-11-21T14:05:26.160Z,11.11
2017-11-21T14:07:52.958Z,11.12
2017-11-21T14:10:19.482Z,11.12
2017-11-21T14:12:46.055Z,11.13
2017-11-21T14:15:12.590Z,11.03
2017-11-21T14:17:39.074Z,10.96
2017-11-21T14:20:05.661Z,10.99
2017-11-21T14:22:32.098Z,11.03
2017-11-21T14:24:58.713Z,11.07
2017-11-21T14:27:25.263Z,11.05
2017-11-21T14:29:51.906Z,10.78
2017-11-21T14:32:18.286Z,10.85
2017-11-21T14:34:44.745Z,10.94
2017-11-21T14:37:11.341Z,10.97
2017-11-21T14:39:37.769Z,10.90
2017-11-21T14:42:04.246Z,10.84
2017-11-21T14:44:30.812Z,10.88
2017-11-21T14:46:57.293Z,10.88
2017-11-21T14:49:23.741Z,10.82
2017-11-21T14:51:50.182Z,10.78
2017-11-21T14:54:16.610Z,10.73
2017-11-21T14:56:43.061Z,10.67
2017-11-21T14:59:09.569Z,10.61
2017-11-21T15:01:36.043Z,10.57
2017-11-21T15:04:02.584Z,10.54
2017-11-21T15:06:29.126Z,10.50
2017-11-21T15:08:55.582Z,10.46
2017-11-21T15:11:22.070Z,10.42
2017-11-21T15:13:48.637Z,10.44
2017-11-21T15:16:15.219Z,10.40
2017-11-21T15:18:41.717Z,10.32
2017-11-21T15:21:08.225Z,10.27
2017-11-21T15:23:34.739Z,10.23
2017-11-21T15:26:01.257Z,10.23
2017-11-21T15:28:27.926Z,10.18
2017-11-21T15:30:54.442Z,10.14
2017-11-21T15:33:21.114Z,10.07
2017-11-21T15:35:47.692Z,10.06
2017-11-21T15:38:14.137Z,10.05
2017-11-21T15:40:40.566Z,10.02
2017-11-21T15:43:07.031Z,9.97
2017-11-21T15:45:33.532Z,9.96
2017-11-21T15:48:00.020Z,9.98
2017-11-21T15:50:26.474Z,10.02
2017-11-21T15:52:52.862Z,10.04
2017-11-21T15:55:19.314Z,10.03
2017-11-21T15:57:45.793Z,10.01
2017-11-21T16:00:12.288Z,10.00
2017-11-21T16:02:38.709Z,9.95
2017-11-21T16:05:05.195Z,9.92
2017-11-21T16:07:31.689Z,9.90
2017-11-21T16:09:58.158Z,9.92
2017-11-21T16:12:24.605Z,9.89
2017-11-21T16:14:51.022Z,9.87
2017-11-21T16:17:17.475Z,9.85
2017-11-21T16:19:43.911Z,9.84
2017-11-21T16:22:10.310Z,9.86
2017-11-21T16:24:36.710Z,9.85
2017-11-21T16:27:03.133Z,9.85
2017-11-21T16:29:29.617Z,9.84
2017-11-21T16:31:55.994Z,9.81
2017-11-21T16:34:22.485Z,9.81
2017-11-21T16:36:48.880Z,9.80
2017-11-21T16:39:15.346Z,9.80
2017-11-21T16:41:41.857Z,9.80
2017-11-21T16:44:08.267Z,9.82
2017-11-21T16:46:34.654Z,9.82
2017-11-21T16:49:01.110Z,9.81
2017-11-21T16:51:29.125Z,9.80
2017-11-21T16:53:55.532Z,9.79
2017-11-21T16:56:22.019Z,9.81
2017-11-21T16:58:48.466Z,9.83
2017-11-21T17:01:15.063Z,9.82
2017-11-21T17:03:41.669Z,9.81
2017-11-21T17:06:09.013Z,9.81
2017-11-21T17:08:35.410Z,9.80
2017-11-21T17:11:02.167Z,9.76
2017-11-21T17:13:28.690Z,9.72
2017-11-21T17:15:55.129Z,9.76
2017-11-21T17:18:21.606Z,9.81
2017-11-21T17:20:48.062Z,9.83
2017-11-21T17:23:20.801Z,9.81
2017-11-21T17:25:47.257Z,9.77
2017-11-21T17:28:13.642Z,9.77
2017-11-21T17:30:40.027Z,9.80
2017-11-21T17:33:06.475Z,9.78
2017-11-21T17:35:32.937Z,9.72
2017-11-21T17:38:00.297Z,9.69
2017-11-21T17:40:26.734Z,9.67
2017-11-21T17:42:53.250Z,9.64
2017-11-21T17:45:19.729Z,9.64
2017-11-21T17:47:46.253Z,9.63
2017-11-21T17:50:12.736Z,9.57
2017-11-21T17:52:39.545Z,9.54
2017-11-21T17:55:06.022Z,9.51
2017-11-21T17:57:32.659Z,9.49
2017-11-21T17:59:59.102Z,9.51
2017-11-21T18:02:25.594Z,9.49
2017-11-21T18:04:53.007Z,9.50
2017-11-21T18:07:19.562Z,9.51
2017-11-21T18:09:46.046Z,9.54
2017-11-21T18:12:12.521Z,9.57
2017-11-21T18:14:39.015Z,9.58
2017-11-21T18:17:05.479Z,9.58
2017-11-21T18:19:31.890Z,9.60
2017-11-21T18:21:58.317Z,9.60
2017-11-21T18:24:24.754Z,9.60
2017-11-21T18:26:51.154Z,9.60
2017-11-21T18:29:17.601Z,9.57
2017-11-21T18:31:44.027Z,9.61
2017-11-21T18:34:10.401Z,9.61
2017-11-21T18:36:36.862Z,9.61
2017-11-21T18:39:03.385Z,9.62
2017-11-21T18:41:29.798Z,9.58
2017-11-21T18:43:58.881Z,9.54
2017-11-21T18:46:25.413Z,9.50
2017-11-21T18:48:51.910Z,9.47
2017-11-21T18:51:19.317Z,9.43
2017-11-21T18:53:45.710Z,9.38
2017-11-21T18:56:13.062Z,9.41
2017-11-21T18:58:40.713Z,9.44
2017-11-21T19:01:07.393Z,9.43
2017-11-21T19:03:34.458Z,9.40
2017-11-21T19:06:00.809Z,9.42
2017-11-21T19:08:27.285Z,9.43
2017-11-21T19:10:53.686Z,9.46
2017-11-21T19:13:20.109Z,9.48
2017-11-21T19:15:46.650Z,9.45
2017-11-21T19:18:14.751Z,9.45
2017-11-21T19:20:42.108Z,9.51
2017-11-21T19:23:08.565Z,9.57
2017-11-21T19:25:35.482Z,9.71
2017-11-21T19:28:01.879Z,9.76
2017-11-21T19:30:29.255Z,9.67
2017-11-21T19:32:56.526Z,9.58
2017-11-21T19:35:22.942Z,9.49
2017-11-21T19:37:49.446Z,9.42
2017-11-21T19:40:15.850Z,9.42
2017-11-21T19:42:42.339Z,9.42
2017-11-21T19:45:08.893Z,9.44
2017-11-21T19:47:35.291Z,9.45
2017-11-21T19:50:01.667Z,9.45
2017-11-21T19:52:28.190Z,9.48
2017-11-21T19:54:54.709Z,9.50
2017-11-21T19:57:21.087Z,9.49
2017-11-21T19:59:47.568Z,9.47
2017-11-21T20:02:14.953Z,9.44
2017-11-21T20:04:41.357Z,9.44
2017-11-21T20:07:07.771Z,9.51
2017-11-21T20:09:34.948Z,9.56
2017-11-21T20:12:01.320Z,9.57
2017-11-21T20:14:27.913Z,9.58
2017-11-21T20:16:54.278Z,9.57
2017-11-21T20:19:20.622Z,9.53
2017-11-21T20:21:47.159Z,9.51
2017-11-21T20:24:13.549Z,9.54
2017-11-21T20:26:39.945Z,9.55
2017-11-21T20:29:06.458Z,9.51
2017-11-21T20:31:32.865Z,9.50
2017-11-21T20:33:59.282Z,9.48
2017-11-21T20:36:25.766Z,9.48
2017-11-21T20:38:52.150Z,9.49
2017-11-21T20:41:18.548Z,9.49
2017-11-21T20:43:45.034Z,9.49
2017-11-21T20:46:12.429Z,9.48
2017-11-21T20:48:38.825Z,9.49
2017-11-21T20:51:05.269Z,9.45
2017-11-21T20:53:31.665Z,9.48
2017-11-21T20:55:58.017Z,9.53
2017-11-21T20:58:24.486Z,9.51
2017-11-21T21:00:50.934Z,9.48
2017-11-21T21:03:17.449Z,9.46
2017-11-21T21:05:44.823Z,9.47
2017-11-21T21:08:11.210Z,9.45
2017-11-21T21:10:37.613Z,9.43
2017-11-21T21:13:04.049Z,9.41
2017-11-21T21:15:30.460Z,9.38
2017-11-21T21:17:56.813Z,9.41
2017-11-21T21:20:23.788Z,9.45
2017-11-21T21:22:50.168Z,9.45
2017-11-21T21:25:16.602Z,9.44
2017-11-21T21:27:43.059Z,9.45
2017-11-21T21:30:09.440Z,9.49
2017-11-21T21:32:35.813Z,9.46
2017-11-21T21:35:02.265Z,9.44
2017-11-21T21:37:28.609Z,9.49
2017-11-21T21:39:54.984Z,9.54
2017-11-21T21:42:21.504Z,9.60
2017-11-21T21:44:47.878Z,9.59
2017-11-21T21:47:14.241Z,9.60
2017-11-21T21:49:40.632Z,9.53
2017-11-21T21:52:06.997Z,9.53
2017-11-21T21:54:33.438Z,9.51
2017-11-21T21:56:59.895Z,9.52
2017-11-21T21:59:26.283Z,9.50
2017-11-21T22:01:52.681Z,9.50
2017-11-21T22:04:19.146Z,9.53
2017-11-21T22:06:45.529Z,9.56
2017-11-21T22:09:11.939Z,9.60
2017-11-21T22:11:38.378Z,9.61
2017-11-21T22:14:04.761Z,9.60
2017-11-21T22:16:31.173Z,9.58
2017-11-21T22:18:57.561Z,9.57
2017-11-21T22:21:23.958Z,9.59
2017-11-21T22:23:50.301Z,9.58
2017-11-21T22:26:16.702Z,9.57
2017-11-21T22:28:43.048Z,9.59
2017-11-21T22:31:09.398Z,9.58
2017-11-21T22:33:35.882Z,9.58
2017-11-21T22:36:02.230Z,9.59
2017-11-21T22:38:28.570Z,9.60
2017-11-21T22:40:55.079Z,9.59
2017-11-21T22:43:21.461Z,9.59
2017-11-21T22:45:47.843Z,9.61
2017-11-21T22:48:14.276Z,9.61
2017-11-21T22:50:40.682Z,9.58
2017-11-21T22:53:07.143Z,9.48
2017-11-21T22:55:33.601Z,9.49
2017-11-21T22:58:00.018Z,9.50
2017-11-21T23:00:26.373Z,9.51
2017-11-21T23:02:52.802Z,9.49
2017-11-21T23:05:19.309Z,9.47
2017-11-21T23:07:45.742Z,9.48
2017-11-21T23:10:12.174Z,9.41
2017-11-21T23:12:38.587Z,9.39
2017-11-21T23:15:05.014Z,9.39
2017-11-21T23:17:31.441Z,9.24
2017-11-21T23:19:57.825Z,9.26
2017-11-21T23:22:24.341Z,9.32
2017-11-21T23:24:50.774Z,9.42
2017-11-21T23:27:17.181Z,9.48
2017-11-21T23:29:43.538Z,9.48
2017-11-21T23:32:10.005Z,9.58
2017-11-21T23:34:36.382Z,9.62
2017-11-21T23:37:02.838Z,9.56
2017-11-21T23:39:29.248Z,9.51
2017-11-21T23:41:55.625Z,9.54
2017-11-21T23:44:21.985Z,9.55
2017-11-21T23:46:48.419Z,9.58
2017-11-21T23:49:14.797Z,9.57
2017-11-21T23:51:41.169Z,9.61
2017-11-21T23:54:07.542Z,9.66
2017-11-21T23:56:33.996Z,9.60
2017-11-21T23:59:00.377Z,9.53
